Time;durP1;ratioP1;P1;durP2;ratioP2;P2;SDS_P1;SDS_P2;PMS_P1;PMS_P2;Temp;Humidity;BMP_temperature;BMP_pressure;BME280_temperature;BME280_humidity;BME280_pressure;Samples;Min_cycle;Max_cycle;Signal;HPM_P1;HPM_P2
2023/02/26 00:01:20;;;;;;;3.72;0.40;;;4.20;99.90;;;;;;4956560;28;20458;-64
2023/02/26 00:03:51;;;;;;;1.15;0.30;;;4.20;99.90;;;;;;4954044;28;20032;-63
2023/02/26 00:06:16;;;;;;;4.97;1.08;;;4.20;99.90;;;;;;4954016;28;20422;-63
2023/02/26 00:08:42;;;;;;;3.17;0.97;;;4.10;99.90;;;;;;4953448;28;20032;-63
2023/02/26 00:11:09;;;;;;;0.43;0.27;;;4.00;99.90;;;;;;4956322;28;20673;-63
2023/02/26 00:13:37;;;;;;;5.57;1.08;;;4.00;99.90;;;;;;4954201;28;20029;-63
2023/02/26 00:16:09;;;;;;;1.35;0.50;;;4.00;99.90;;;;;;4955496;28;20081;-64
2023/02/26 00:18:36;;;;;;;3.30;1.17;;;4.00;99.90;;;;;;4953069;28;20079;-64
2023/02/26 00:21:02;;;;;;;2.50;0.50;;;4.00;99.90;;;;;;4956288;28;20167;-63
2023/02/26 00:23:28;;;;;;;3.03;0.20;;;4.00;99.90;;;;;;4938516;28;21168;-63
2023/02/26 00:25:54;;;;;;;7.00;0.75;;;4.00;99.90;;;;;;4937370;28;20028;-64
2023/02/26 00:28:20;;;;;;;2.57;0.37;;;4.00;99.90;;;;;;4953715;28;20051;-64
2023/02/26 00:30:46;;;;;;;0.27;0.27;;;3.90;99.90;;;;;;4954930;28;20052;-62
2023/02/26 00:33:12;;;;;;;3.25;1.02;;;3.80;99.90;;;;;;4935532;28;20267;-64
2023/02/26 00:35:38;;;;;;;1.60;0.70;;;3.80;99.90;;;;;;4953268;28;20111;-64
2023/02/26 00:38:15;;;;;;;7.20;0.75;;;3.70;99.90;;;;;;4957015;28;20028;-64
2023/02/26 00:40:47;;;;;;;2.80;0.90;;;3.60;99.90;;;;;;4955511;28;20083;-62
2023/02/26 00:43:16;;;;;;;5.63;0.47;;;3.60;99.90;;;;;;4956727;28;20082;-64
2023/02/26 00:46:08;;;;;;;4.07;0.45;;;3.50;99.90;;;;;;4920322;28;24678;-63
2023/02/26 00:48:52;;;;;;;4.88;0.60;;;3.30;99.90;;;;;;4953837;28;20037;-63
2023/02/26 00:51:24;;;;;;;3.88;0.82;;;3.20;99.90;;;;;;4954453;28;21131;-63
2023/02/26 00:54:11;;;;;;;2.03;0.43;;;3.20;99.90;;;;;;4954577;28;20028;-63
2023/02/26 00:56:36;;;;;;;;;;;3.10;99.90;;;;;;4957283;28;20040;-63
2023/02/26 00:59:02;;;;;;;3.03;0.57;;;3.10;99.90;;;;;;4954872;28;19913;-63
2023/02/26 01:01:28;;;;;;;2.13;0.50;;;2.90;99.90;;;;;;4955895;28;20270;-63
2023/02/26 01:03:55;;;;;;;5.13;0.87;;;2.80;99.90;;;;;;4954702;28;20028;-62
2023/02/26 01:06:23;;;;;;;;;;;2.90;99.90;;;;;;4954807;28;20344;-63
2023/02/26 01:09:04;;;;;;;1.08;0.50;;;2.80;99.90;;;;;;4954809;28;20856;-63
2023/02/26 01:11:30;;;;;;;1.85;0.40;;;2.70;99.90;;;;;;4935829;28;20234;-63
2023/02/26 01:13:56;;;;;;;4.22;1.88;;;2.70;99.90;;;;;;4921866;28;20024;-63
2023/02/26 01:16:27;;;;;;;0.10;0.10;;;2.70;99.90;;;;;;4936029;28;20049;-64
2023/02/26 01:19:12;;;;;;;4.03;0.70;;;2.70;99.90;;;;;;4954932;28;20024;-64
2023/02/26 01:21:44;;;;;;;3.75;0.80;;;2.80;99.90;;;;;;4955801;28;20064;-63
2023/02/26 01:24:14;;;;;;;0.95;0.65;;;2.80;99.90;;;;;;4956122;28;20020;-63
2023/02/26 01:26:40;;;;;;;2.17;1.00;;;2.90;99.90;;;;;;4954851;28;20103;-63
2023/02/26 01:29:06;;;;;;;4.00;0.70;;;2.90;99.90;;;;;;4954244;28;20249;-62
2023/02/26 01:31:40;;;;;;;0.80;0.30;;;2.90;99.90;;;;;;4955994;28;20258;-62
2023/02/26 01:34:29;;;;;;;5.97;1.02;;;2.80;99.90;;;;;;4955475;28;20980;-62
2023/02/26 01:37:07;;;;;;;1.45;0.60;;;2.70;99.90;;;;;;4941619;28;20334;-62
2023/02/26 01:39:45;;;;;;;5.43;0.50;;;2.70;99.90;;;;;;4952821;28;20369;-62
2023/02/26 01:42:13;;;;;;;8.50;0.70;;;2.60;99.90;;;;;;4953855;28;20025;-64
2023/02/26 01:44:57;;;;;;;7.57;0.65;;;2.50;99.90;;;;;;4962304;28;20053;-62
2023/02/26 01:47:50;;;;;;;2.10;0.47;;;2.50;99.90;;;;;;4975408;28;20024;-63
2023/02/26 01:50:20;;;;;;;3.63;0.63;;;2.50;99.90;;;;;;4962075;28;23354;-62
2023/02/26 01:52:46;;;;;;;3.42;1.30;;;2.50;99.90;;;;;;4962253;28;20028;-62
2023/02/26 01:55:16;;;;;;;4.10;0.50;;;2.50;99.90;;;;;;4959996;28;21036;-62
2023/02/26 01:57:43;;;;;;;5.28;0.85;;;2.50;99.90;;;;;;4957778;28;21879;-62
2023/02/26 02:00:09;;;;;;;0.20;0.20;;;2.50;99.90;;;;;;4952239;28;20750;-63
2023/02/26 02:02:35;;;;;;;;;;;2.40;99.90;;;;;;4952289;28;20028;-64
2023/02/26 02:05:27;;;;;;;4.15;1.02;;;2.50;99.90;;;;;;4953931;28;20016;-62
2023/02/26 02:07:55;;;;;;;20.13;1.00;;;2.50;99.90;;;;;;4954816;28;20033;-62
2023/02/26 02:10:21;;;;;;;2.25;0.40;;;2.50;99.90;;;;;;4952252;28;20024;-62
2023/02/26 02:13:07;;;;;;;4.83;1.23;;;2.50;99.90;;;;;;4955205;28;20113;-62
2023/02/26 02:16:11;;;;;;;2.20;0.95;;;2.40;99.90;;;;;;4953887;28;21012;-62
2023/02/26 02:19:03;;;;;;;3.53;1.17;;;2.40;99.90;;;;;;4952235;28;21503;-63
2023/02/26 02:22:03;;;;;;;0.45;0.20;;;2.40;99.90;;;;;;4918168;28;20046;-63
2023/02/26 02:25:02;;;;;;;0.30;0.20;;;2.60;99.90;;;;;;4937308;28;22092;-63
2023/02/26 02:27:55;;;;;;;2.03;0.85;;;2.60;99.90;;;;;;4953143;28;20958;-63
2023/02/26 02:30:30;;;;;;;12.23;0.50;;;2.50;99.90;;;;;;4897750;28;20064;-63
2023/02/26 02:33:15;;;;;;;4.47;0.38;;;2.50;99.90;;;;;;4953169;28;20025;-63
2023/02/26 02:35:47;;;;;;;0.43;0.40;;;2.50;99.90;;;;;;4954274;28;20016;-63
2023/02/26 02:38:19;;;;;;;2.25;0.52;;;2.50;99.90;;;;;;4953534;28;20036;-62
2023/02/26 02:40:50;;;;;;;1.98;0.77;;;2.50;99.90;;;;;;4954242;28;20960;-62
2023/02/26 02:43:21;;;;;;;0.10;0.10;;;2.50;99.90;;;;;;4951433;28;20867;-63
2023/02/26 02:46:10;;;;;;;5.15;0.50;;;2.40;99.90;;;;;;4949088;28;20059;-63
2023/02/26 02:49:08;;;;;;;0.80;0.50;;;2.40;99.90;;;;;;4953742;28;20020;-63
2023/02/26 02:51:41;;;;;;;0.98;0.17;;;2.40;99.90;;;;;;4857318;28;20045;-64
2023/02/26 02:54:12;;;;;;;0.40;0.28;;;2.40;99.90;;;;;;4856426;28;20373;-63
2023/02/26 02:56:47;;;;;;;0.30;0.30;;;2.50;99.90;;;;;;4859990;28;20116;-63
2023/02/26 02:59:17;;;;;;;1.02;0.40;;;2.40;99.90;;;;;;4857410;28;20859;-63
2023/02/26 03:01:46;;;;;;;4.38;0.63;;;2.40;99.90;;;;;;4858067;28;20063;-62
2023/02/26 03:04:14;;;;;;;12.88;0.80;;;2.30;99.90;;;;;;4856696;28;22606;-63
2023/02/26 03:06:41;;;;;;;1.27;0.55;;;2.40;99.90;;;;;;4859284;28;20027;-63
2023/02/26 03:09:09;;;;;;;1.10;0.93;;;2.40;99.90;;;;;;4861896;28;20462;-64
2023/02/26 03:11:36;;;;;;;0.38;0.38;;;2.50;99.90;;;;;;4860980;28;20058;-62
2023/02/26 03:14:03;;;;;;;2.20;0.43;;;2.50;99.90;;;;;;4861198;28;20070;-63
2023/02/26 03:16:51;;;;;;;5.20;0.30;;;2.50;99.90;;;;;;4859536;28;20035;-62
2023/02/26 03:19:26;;;;;;;0.38;0.10;;;2.40;99.90;;;;;;4857733;28;20034;-63
2023/02/26 03:22:12;;;;;;;0.30;0.30;;;2.30;99.90;;;;;;4861980;28;21483;-65
2023/02/26 03:24:47;;;;;;;;;;;2.40;99.90;;;;;;4861021;28;20803;-66
2023/02/26 03:27:16;;;;;;;3.50;0.77;;;2.30;99.90;;;;;;4907251;28;19983;-62
2023/02/26 03:29:54;;;;;;;0.10;0.10;;;2.20;99.90;;;;;;4956609;28;20036;-62
2023/02/26 03:33:04;;;;;;;6.50;0.45;;;2.20;99.90;;;;;;4958841;28;20027;-62
2023/02/26 03:35:45;;;;;;;1.45;0.10;;;2.30;99.90;;;;;;4865689;28;20046;-62
2023/02/26 03:38:18;;;;;;;0.80;0.57;;;2.30;99.90;;;;;;4867644;28;20157;-63
2023/02/26 03:40:56;;;;;;;6.40;1.13;;;2.20;99.90;;;;;;4852008;28;20027;-62
2023/02/26 03:43:36;;;;;;;0.10;0.10;;;2.20;99.90;;;;;;4869086;28;20038;-62
2023/02/26 03:46:06;;;;;;;3.40;0.60;;;2.20;99.90;;;;;;4870598;28;20774;-63
2023/02/26 03:48:35;;;;;;;4.03;0.52;;;2.20;99.90;;;;;;4871910;28;20761;-63
2023/02/26 03:51:22;;;;;;;0.55;0.20;;;2.10;99.90;;;;;;4852901;28;20879;-63
2023/02/26 03:54:01;;;;;;;1.30;0.43;;;2.10;99.90;;;;;;4867918;28;20027;-63
2023/02/26 03:56:40;;;;;;;3.13;0.55;;;2.10;99.90;;;;;;4865852;28;24280;-62
2023/02/26 03:59:07;;;;;;;0.65;0.10;;;2.00;99.90;;;;;;4852471;28;20046;-63
2023/02/26 04:01:44;;;;;;;9.88;0.60;;;1.90;99.90;;;;;;4868923;28;20118;-62
2023/02/26 04:04:41;;;;;;;1.00;0.22;;;1.90;99.90;;;;;;4865970;28;20030;-62
2023/02/26 04:07:09;;;;;;;1.70;0.10;;;1.90;99.90;;;;;;4868087;28;20086;-62
2023/02/26 04:09:35;;;;;;;1.60;0.60;;;1.90;99.90;;;;;;4867889;28;20859;-63
2023/02/26 04:12:01;;;;;;;1.23;0.40;;;1.80;99.90;;;;;;4941991;28;20024;-62
2023/02/26 04:14:27;;;;;;;2.80;0.50;;;1.80;99.90;;;;;;4954464;28;20104;-62
2023/02/26 04:16:52;;;;;;;4.23;0.63;;;1.80;99.90;;;;;;4954315;28;20056;-62
2023/02/26 04:19:18;;;;;;;9.90;0.50;;;1.70;99.90;;;;;;4957501;28;20028;-62
2023/02/26 04:21:44;;;;;;;0.70;0.40;;;1.70;99.90;;;;;;4954501;28;20028;-62
2023/02/26 04:24:10;;;;;;;0.95;0.20;;;1.80;99.90;;;;;;4953715;28;20040;-63
2023/02/26 04:26:36;;;;;;;2.80;0.13;;;1.70;99.90;;;;;;4954638;28;23937;-62
2023/02/26 04:29:03;;;;;;;0.20;0.20;;;1.80;99.90;;;;;;4953243;28;20048;-62
2023/02/26 04:31:28;;;;;;;1.80;0.75;;;1.80;99.90;;;;;;4955750;28;20085;-62
2023/02/26 04:33:54;;;;;;;2.53;0.37;;;1.80;99.90;;;;;;4958315;28;20387;-62
2023/02/26 04:36:20;;;;;;;2.90;0.43;;;1.70;99.90;;;;;;4955334;28;20047;-62
2023/02/26 04:38:46;;;;;;;0.77;0.40;;;1.80;99.90;;;;;;4956091;28;20447;-63
2023/02/26 04:41:12;;;;;;;2.17;0.60;;;1.80;99.90;;;;;;4956026;28;20044;-63
2023/02/26 04:43:38;;;;;;;0.20;0.10;;;1.90;99.90;;;;;;4954282;28;22349;-63
2023/02/26 04:46:04;;;;;;;7.70;0.53;;;2.00;99.90;;;;;;4936265;28;20040;-62
2023/02/26 04:48:30;;;;;;;1.88;0.25;;;1.90;99.90;;;;;;4955697;28;20127;-62
2023/02/26 04:50:56;;;;;;;1.27;0.60;;;1.80;99.90;;;;;;4937823;28;20028;-62
2023/02/26 04:53:22;;;;;;;3.20;0.57;;;1.70;99.90;;;;;;4957120;28;20028;-62
2023/02/26 04:55:48;;;;;;;7.60;0.87;;;1.70;99.90;;;;;;4953700;28;20032;-65
2023/02/26 04:58:14;;;;;;;7.80;0.57;;;1.70;99.90;;;;;;4959229;28;20069;-61
2023/02/26 05:00:40;;;;;;;2.50;0.50;;;1.60;99.90;;;;;;4956613;28;20029;-62
2023/02/26 05:03:08;;;;;;;3.72;0.88;;;1.60;99.90;;;;;;4938811;28;23894;-62
2023/02/26 05:05:35;;;;;;;1.35;0.50;;;1.70;99.90;;;;;;4954939;28;20024;-62
2023/02/26 05:08:01;;;;;;;3.42;0.82;;;1.70;99.90;;;;;;4956355;28;20063;-62
2023/02/26 05:10:27;;;;;;;6.47;0.88;;;1.60;99.90;;;;;;4953882;28;20112;-62
2023/02/26 05:12:53;;;;;;;2.53;0.60;;;1.60;99.90;;;;;;4954733;28;20028;-62
2023/02/26 05:15:18;;;;;;;2.63;0.50;;;1.50;99.90;;;;;;4954078;28;20078;-62
2023/02/26 05:17:44;;;;;;;8.43;0.67;;;1.50;99.90;;;;;;4954750;28;20829;-61
2023/02/26 05:20:11;;;;;;;2.60;2.40;;;1.50;99.90;;;;;;4955501;28;20025;-62
2023/02/26 05:22:38;;;;;;;1.73;0.82;;;1.70;99.90;;;;;;4937295;28;20026;-62
2023/02/26 05:25:06;;;;;;;0.75;0.28;;;1.70;99.90;;;;;;4954318;28;20163;-61
2023/02/26 05:27:33;;;;;;;1.85;0.40;;;1.60;99.90;;;;;;4953865;28;20755;-62
2023/02/26 05:29:58;;;;;;;2.55;0.63;;;1.60;99.90;;;;;;4957349;28;20145;-63
2023/02/26 05:32:24;;;;;;;4.50;0.57;;;1.60;99.90;;;;;;4956176;28;20430;-62
2023/02/26 05:34:50;;;;;;;0.90;0.60;;;1.70;99.90;;;;;;4953870;28;20028;-61
2023/02/26 05:37:16;;;;;;;6.40;1.17;;;1.60;99.90;;;;;;4936420;28;20466;-62
2023/02/26 05:39:42;;;;;;;1.53;0.37;;;1.60;99.90;;;;;;4955298;28;20021;-61
2023/02/26 05:42:08;;;;;;;0.47;0.33;;;1.60;99.90;;;;;;4955279;28;22093;-63
2023/02/26 05:44:34;;;;;;;2.00;0.57;;;1.60;99.90;;;;;;4952601;28;20036;-62
2023/02/26 05:47:01;;;;;;;4.40;0.50;;;1.60;99.90;;;;;;4954256;28;23398;-62
2023/02/26 05:49:27;;;;;;;0.90;0.32;;;1.50;99.90;;;;;;4951976;28;20123;-62
2023/02/26 05:51:53;;;;;;;4.57;0.40;;;1.50;99.90;;;;;;4953287;28;20017;-62
2023/02/26 05:54:19;;;;;;;1.60;0.47;;;1.50;99.90;;;;;;4951001;28;20423;-62
2023/02/26 05:56:45;;;;;;;4.97;0.50;;;1.50;99.90;;;;;;4935586;28;20078;-62
2023/02/26 05:59:11;;;;;;;0.70;0.30;;;1.50;99.90;;;;;;4952602;28;20040;-62
2023/02/26 06:01:37;;;;;;;2.77;0.50;;;1.50;99.90;;;;;;4951587;28;20032;-62
2023/02/26 06:04:06;;;;;;;0.13;0.13;;;1.40;99.90;;;;;;4950924;28;20087;-61
2023/02/26 06:06:32;;;;;;;1.08;0.47;;;1.50;99.90;;;;;;4953001;28;20036;-62
2023/02/26 06:09:00;;;;;;;1.23;0.63;;;1.50;99.90;;;;;;4953505;28;20442;-61
2023/02/26 06:11:26;;;;;;;6.40;0.90;;;1.60;99.90;;;;;;4951391;28;20017;-62
2023/02/26 06:13:52;;;;;;;0.47;0.30;;;1.50;99.90;;;;;;4952530;28;20080;-62
2023/02/26 06:16:19;;;;;;;5.63;0.53;;;1.50;99.90;;;;;;4950515;28;20025;-62
2023/02/26 06:18:45;;;;;;;1.20;0.35;;;1.40;99.90;;;;;;4951728;28;20168;-62
2023/02/26 06:21:11;;;;;;;2.28;0.40;;;1.40;99.90;;;;;;4951682;28;20059;-62
2023/02/26 06:23:37;;;;;;;13.65;0.70;;;1.40;99.90;;;;;;4953662;28;20028;-62
2023/02/26 06:26:04;;;;;;;1.83;0.27;;;1.40;99.90;;;;;;4951433;28;20027;-62
2023/02/26 06:28:30;;;;;;;1.90;0.70;;;1.50;99.90;;;;;;4954179;28;20048;-63
2023/02/26 06:30:56;;;;;;;0.30;0.28;;;1.50;99.90;;;;;;4953459;28;20031;-62
2023/02/26 06:33:22;;;;;;;1.27;0.73;;;1.40;99.90;;;;;;4951475;28;20016;-62
2023/02/26 06:35:48;;;;;;;4.20;1.02;;;1.40;99.90;;;;;;4951706;28;20308;-62
2023/02/26 06:38:14;;;;;;;1.65;0.35;;;1.40;99.90;;;;;;4953906;28;20737;-62
2023/02/26 06:40:41;;;;;;;3.03;0.43;;;1.40;99.90;;;;;;4952154;28;20025;-62
2023/02/26 06:43:07;;;;;;;1.15;0.68;;;1.30;99.90;;;;;;4952248;28;20086;-62
2023/02/26 06:45:32;;;;;;;0.30;0.30;;;1.20;99.90;;;;;;4950169;28;20037;-62
2023/02/26 06:47:58;;;;;;;2.30;0.40;;;1.20;99.90;;;;;;4952719;28;21820;-62
2023/02/26 06:50:24;;;;;;;0.40;0.40;;;1.20;99.90;;;;;;4948845;28;20027;-62
2023/02/26 06:52:50;;;;;;;2.60;0.30;;;1.20;99.90;;;;;;4934066;28;20020;-62
2023/02/26 06:55:16;;;;;;;1.90;0.40;;;1.20;99.90;;;;;;4948725;28;20049;-62
2023/02/26 06:57:42;;;;;;;3.60;0.73;;;1.20;99.90;;;;;;4952338;28;20324;-62
2023/02/26 07:00:09;;;;;;;6.60;0.33;;;1.20;99.90;;;;;;4952324;28;20281;-62
2023/02/26 07:02:35;;;;;;;1.25;0.43;;;1.30;99.90;;;;;;4949280;28;20369;-62
2023/02/26 07:05:01;;;;;;;0.38;0.38;;;1.30;99.90;;;;;;4948743;28;20039;-62
2023/02/26 07:07:27;;;;;;;1.20;0.10;;;1.40;99.90;;;;;;4950102;28;20064;-62
2023/02/26 07:09:53;;;;;;;3.53;0.30;;;1.40;99.90;;;;;;4949351;28;20033;-61
2023/02/26 07:12:19;;;;;;;0.30;0.30;;;1.40;99.90;;;;;;4949938;28;20444;-62
2023/02/26 07:14:45;;;;;;;4.33;0.30;;;1.50;99.90;;;;;;4950102;28;20029;-62
2023/02/26 07:17:19;;;;;;;0.70;0.33;;;1.50;99.90;;;;;;4950731;28;23570;-62
2023/02/26 07:19:49;;;;;;;7.22;0.52;;;1.60;99.90;;;;;;4949985;28;20025;-62
2023/02/26 07:22:17;;;;;;;1.45;0.60;;;1.60;99.90;;;;;;4951155;28;20027;-62
2023/02/26 07:24:44;;;;;;;2.17;0.60;;;1.60;99.90;;;;;;4949749;28;20141;-62
2023/02/26 07:27:11;;;;;;;3.03;0.40;;;1.70;99.90;;;;;;4949724;28;23942;-62
2023/02/26 07:29:37;;;;;;;;;;;1.70;99.90;;;;;;4950767;28;20122;-62
2023/02/26 07:32:03;;;;;;;0.65;0.30;;;1.90;99.90;;;;;;4952433;28;19920;-62
2023/02/26 07:34:29;;;;;;;3.08;0.45;;;2.40;99.90;;;;;;4932595;28;20072;-62
2023/02/26 07:36:55;;;;;;;3.25;0.65;;;2.90;99.90;;;;;;4953604;28;20031;-62
2023/02/26 07:39:21;;;;;;;9.38;0.65;;;3.50;99.90;;;;;;4935487;28;20768;-62
2023/02/26 07:41:49;;;;;;;1.00;0.80;;;3.80;99.90;;;;;;4934582;28;20201;-62
2023/02/26 07:44:14;;;;;;;5.53;0.80;;;3.90;99.90;;;;;;4951688;28;20082;-62
2023/02/26 07:46:40;;;;;;;0.37;0.37;;;3.90;99.90;;;;;;4949770;28;20436;-62
2023/02/26 07:49:06;;;;;;;0.10;0.10;;;4.10;99.90;;;;;;4948833;28;20666;-62
2023/02/26 07:51:32;;;;;;;6.73;0.73;;;4.00;99.90;;;;;;5034859;28;20108;-62
2023/02/26 07:53:58;;;;;;;2.60;0.53;;;3.90;99.90;;;;;;5055549;28;20367;-63
2023/02/26 07:56:24;;;;;;;2.60;0.30;;;4.30;99.90;;;;;;5033956;28;21414;-63
2023/02/26 07:58:50;;;;;;;0.45;0.25;;;4.30;99.90;;;;;;5050639;28;20049;-73
2023/02/26 08:01:16;;;;;;;3.60;0.40;;;4.40;99.90;;;;;;5050573;28;20446;-63
2023/02/26 08:03:42;;;;;;;1.90;0.33;;;4.40;99.90;;;;;;5052291;28;20064;-63
2023/02/26 08:06:08;;;;;;;3.30;0.50;;;4.60;99.90;;;;;;5049842;28;20112;-62
2023/02/26 08:08:34;;;;;;;2.43;0.23;;;4.60;99.90;;;;;;5049701;28;20112;-72
2023/02/26 08:11:00;;;;;;;9.33;0.80;;;4.80;99.90;;;;;;5052559;28;20029;-62
2023/02/26 08:13:26;;;;;;;1.35;0.50;;;4.70;99.90;;;;;;5054406;28;20254;-63
2023/02/26 08:15:52;;;;;;;0.68;0.25;;;4.40;99.90;;;;;;5050870;28;20025;-62
2023/02/26 08:18:19;;;;;;;0.37;0.27;;;4.50;99.90;;;;;;5049357;28;20730;-62
2023/02/26 08:20:45;;;;;;;0.50;0.40;;;4.40;99.90;;;;;;5053157;28;20025;-71
2023/02/26 08:23:11;;;;;;;0.98;0.40;;;4.70;99.90;;;;;;5055979;28;20072;-62
2023/02/26 08:25:38;;;;;;;0.22;0.20;;;4.60;99.90;;;;;;5023089;28;21412;-63
2023/02/26 08:28:04;;;;;;;0.20;0.13;;;4.40;99.90;;;;;;4927516;28;20714;-63
2023/02/26 08:30:30;;;;;;;1.63;0.40;;;3.70;99.90;;;;;;4946675;28;20473;-61
2023/02/26 08:32:56;;;;;;;0.50;0.50;;;3.80;99.90;;;;;;4946167;28;20024;-62
2023/02/26 08:35:22;;;;;;;1.10;0.17;;;4.30;99.90;;;;;;4948493;28;20113;-64
2023/02/26 08:37:48;;;;;;;1.25;0.57;;;4.50;99.90;;;;;;4942985;28;20121;-63
2023/02/26 08:40:14;;;;;;;0.40;0.40;;;4.50;99.90;;;;;;4947103;28;20025;-62
2023/02/26 08:42:40;;;;;;;0.13;0.13;;;4.80;99.90;;;;;;4947133;28;20040;-62
2023/02/26 08:45:07;;;;;;;1.23;0.40;;;5.00;99.90;;;;;;4950803;28;20120;-62
2023/02/26 08:47:33;;;;;;;2.20;0.30;;;4.80;99.90;;;;;;4952886;28;23198;-62
2023/02/26 08:49:59;;;;;;;0.30;0.30;;;4.80;99.90;;;;;;4944943;28;20717;-63
2023/02/26 08:52:24;;;;;;;1.43;0.33;;;4.70;99.90;;;;;;4943971;28;20025;-62
2023/02/26 08:54:51;;;;;;;0.93;0.17;;;4.80;99.90;;;;;;4926129;28;20090;-63
2023/02/26 08:57:16;;;;;;;5.18;0.73;;;4.90;99.90;;;;;;4928616;28;23718;-63
2023/02/26 08:59:42;;;;;;;5.33;0.60;;;5.00;99.90;;;;;;4946863;28;20079;-63
2023/02/26 09:02:12;;;;;;;0.57;0.30;;;5.10;99.90;;;;;;4944977;28;21018;-63
2023/02/26 09:04:38;;;;;;;0.20;0.10;;;5.00;99.90;;;;;;4944800;28;20681;-65
2023/02/26 09:07:04;;;;;;;3.50;0.67;;;4.70;99.90;;;;;;4945001;28;20021;-63
2023/02/26 09:09:30;;;;;;;4.95;0.30;;;4.80;99.90;;;;;;4952385;28;20661;-63
2023/02/26 09:11:57;;;;;;;3.20;0.40;;;4.80;99.90;;;;;;4949347;28;20036;-62
2023/02/26 09:14:23;;;;;;;2.72;0.20;;;5.20;99.90;;;;;;4946005;28;20029;-61
2023/02/26 09:16:50;;;;;;;2.60;0.60;;;5.30;99.90;;;;;;4947165;28;20052;-63
2023/02/26 09:19:16;;;;;;;0.28;0.28;;;5.20;99.90;;;;;;4950106;28;21022;-62
2023/02/26 09:21:42;;;;;;;2.43;0.40;;;5.30;99.90;;;;;;4948051;28;20620;-63
2023/02/26 09:24:08;;;;;;;1.25;0.30;;;5.40;99.90;;;;;;4946941;28;20039;-63
2023/02/26 09:26:34;;;;;;;2.63;0.47;;;5.20;99.90;;;;;;4946693;28;24161;-62
2023/02/26 09:29:00;;;;;;;1.73;0.33;;;5.50;99.90;;;;;;4949274;28;20044;-63
2023/02/26 09:31:26;;;;;;;3.97;0.43;;;5.80;99.90;;;;;;4947075;28;20805;-62
2023/02/26 09:33:52;;;;;;;0.20;0.20;;;5.70;99.90;;;;;;4945863;28;20027;-62
2023/02/26 09:36:18;;;;;;;2.57;0.27;;;5.40;99.90;;;;;;4944544;28;20033;-62
2023/02/26 09:38:44;;;;;;;3.60;0.30;;;5.20;99.90;;;;;;4950644;28;20040;-71
2023/02/26 09:41:30;;;;;;;2.88;0.40;;;5.20;99.90;;;;;;5006215;28;21989;-64
2023/02/26 09:44:05;;;;;;;0.83;0.30;;;5.70;99.90;;;;;;4947134;28;20029;-63
2023/02/26 09:46:56;;;;;;;0.38;0.22;;;5.80;99.90;;;;;;4944184;28;20024;-63
2023/02/26 09:49:31;;;;;;;2.42;0.45;;;5.90;99.90;;;;;;4944295;28;20032;-64
2023/02/26 09:52:25;;;;;;;2.00;0.30;;;5.30;99.90;;;;;;4941299;28;20722;-63
2023/02/26 09:54:55;;;;;;;2.72;0.38;;;5.20;99.90;;;;;;4939909;28;20355;-63
2023/02/26 09:57:33;;;;;;;0.20;0.20;;;5.00;99.90;;;;;;4928138;28;20094;-64
2023/02/26 10:00:00;;;;;;;1.95;0.43;;;4.90;99.90;;;;;;4942606;28;22088;-63
2023/02/26 10:02:44;;;;;;;;;;;5.00;99.90;;;;;;4945501;28;21284;-62
2023/02/26 10:05:33;;;;;;;0.43;0.17;;;5.20;99.90;;;;;;4942317;28;20714;-64
2023/02/26 10:08:06;;;;;;;0.55;0.28;;;5.20;99.90;;;;;;4941962;28;20020;-63
2023/02/26 10:10:43;;;;;;;1.75;0.63;;;5.20;99.90;;;;;;4941756;28;20144;-63
2023/02/26 10:13:44;;;;;;;0.82;0.30;;;5.50;99.90;;;;;;4944818;28;20078;-63
2023/02/26 10:16:22;;;;;;;0.08;0.08;;;5.70;99.90;;;;;;4935440;28;20033;-63
2023/02/26 10:18:59;;;;;;;1.98;0.50;;;5.60;99.90;;;;;;4945089;28;20036;-63
2023/02/26 10:21:43;;;;;;;0.55;0.28;;;5.40;99.90;;;;;;4946849;28;20822;-63
2023/02/26 10:24:18;;;;;;;3.33;0.45;;;5.00;99.90;;;;;;4945076;28;20032;-62
2023/02/26 10:27:03;;;;;;;1.23;0.40;;;4.90;99.90;;;;;;4946224;28;20024;-63
2023/02/26 10:29:39;;;;;;;0.43;0.35;;;5.10;99.90;;;;;;4944924;28;20063;-63
2023/02/26 10:32:20;;;;;;;;;;;5.10;99.90;;;;;;4943967;28;20035;-63
2023/02/26 10:34:56;;;;;;;0.60;0.20;;;5.00;99.90;;;;;;4943435;28;23815;-63
2023/02/26 10:37:43;;;;;;;4.38;0.50;;;5.30;99.90;;;;;;4940813;28;23548;-64
2023/02/26 10:40:14;;;;;;;3.70;0.30;;;5.20;99.90;;;;;;4940669;28;20047;-63
2023/02/26 10:42:54;;;;;;;1.60;0.40;;;5.30;99.90;;;;;;4944765;28;20029;-64
2023/02/26 10:45:38;;;;;;;2.42;0.40;;;5.20;99.90;;;;;;4943240;28;20037;-63
2023/02/26 10:48:35;;;;;;;4.15;0.60;;;5.10;99.90;;;;;;4941306;28;20029;-63
2023/02/26 10:51:11;;;;;;;0.65;0.60;;;5.10;99.90;;;;;;4940366;28;20112;-63
2023/02/26 10:53:38;;;;;;;0.77;0.38;;;5.00;99.90;;;;;;4939233;28;20017;-63
2023/02/26 10:56:10;;;;;;;0.20;0.20;;;5.00;99.90;;;;;;4940582;28;20110;-62
2023/02/26 10:58:35;;;;;;;0.10;0.10;;;5.10;99.90;;;;;;4940727;28;23629;-62
2023/02/26 11:01:01;;;;;;;0.93;0.40;;;5.20;99.90;;;;;;4940294;28;20824;-63
2023/02/26 11:03:33;;;;;;;0.47;0.20;;;5.20;99.90;;;;;;4939167;28;20435;-63
2023/02/26 11:06:01;;;;;;;2.20;0.70;;;5.30;99.90;;;;;;4938953;28;20029;-63
2023/02/26 11:08:32;;;;;;;0.22;0.22;;;5.40;99.90;;;;;;4943417;28;20032;-63
2023/02/26 11:11:00;;;;;;;2.38;0.60;;;5.40;99.90;;;;;;4940486;28;20040;-63
2023/02/26 11:13:29;;;;;;;0.95;0.85;;;5.60;99.90;;;;;;4923124;28;21353;-63
2023/02/26 11:15:57;;;;;;;0.40;0.30;;;5.50;99.90;;;;;;4940023;28;20040;-63
2023/02/26 11:18:40;;;;;;;4.40;0.43;;;5.60;99.90;;;;;;4940609;28;20024;-63
2023/02/26 11:21:07;;;;;;;2.95;0.50;;;5.70;99.90;;;;;;4940390;28;21589;-63
2023/02/26 11:23:34;;;;;;;0.35;0.20;;;5.30;99.90;;;;;;4940880;28;20024;-63
2023/02/26 11:26:07;;;;;;;2.10;0.60;;;5.40;99.90;;;;;;4941237;28;20025;-63
2023/02/26 11:28:49;;;;;;;1.42;0.70;;;5.50;99.90;;;;;;4946573;28;20051;-63
2023/02/26 11:31:18;;;;;;;0.75;0.30;;;5.40;99.90;;;;;;4948231;28;20028;-63
2023/02/26 11:34:07;;;;;;;0.65;0.28;;;5.60;99.90;;;;;;4950788;28;20138;-64
2023/02/26 11:36:36;;;;;;;2.33;0.20;;;5.50;99.90;;;;;;4954556;28;20027;-63
2023/02/26 11:39:16;;;;;;;1.50;0.40;;;5.90;99.90;;;;;;4948480;28;20028;-63
2023/02/26 11:41:45;;;;;;;1.98;0.57;;;5.60;99.90;;;;;;4950380;28;20062;-63
2023/02/26 11:44:17;;;;;;;2.65;0.35;;;5.40;99.90;;;;;;4946259;28;20063;-63
2023/02/26 11:46:55;;;;;;;1.40;0.55;;;5.40;99.90;;;;;;4945436;28;20020;-62
2023/02/26 11:49:27;;;;;;;1.55;0.35;;;5.50;99.90;;;;;;4942014;28;22250;-63
2023/02/26 11:52:15;;;;;;;1.10;0.57;;;5.50;99.90;;;;;;4944254;28;20105;-63
2023/02/26 11:54:44;;;;;;;0.00;0.00;;;5.60;99.90;;;;;;4946977;28;20021;-63
2023/02/26 11:57:24;;;;;;;2.10;0.52;;;5.70;99.90;;;;;;4944775;28;20055;-63
2023/02/26 11:59:52;;;;;;;0.28;0.15;;;5.50;99.90;;;;;;4943798;28;20078;-63
2023/02/26 12:02:22;;;;;;;2.00;0.57;;;5.30;99.90;;;;;;4929051;28;20044;-63
2023/02/26 12:04:52;;;;;;;7.95;1.55;;;5.30;99.90;;;;;;4945742;28;20086;-63
2023/02/26 12:07:20;;;;;;;0.30;0.30;;;5.30;99.90;;;;;;4923888;28;20567;-64
2023/02/26 12:09:47;;;;;;;0.32;0.32;;;5.20;99.90;;;;;;4938576;28;20060;-64
2023/02/26 12:12:25;;;;;;;0.50;0.32;;;5.00;99.90;;;;;;4921932;28;20118;-63
2023/02/26 12:15:12;;;;;;;0.30;0.30;;;4.90;99.90;;;;;;4940535;28;21158;-64
2023/02/26 12:17:48;;;;;;;4.50;0.75;;;4.80;99.90;;;;;;4937990;28;20060;-63
2023/02/26 12:21:15;;;;;;;1.15;1.05;;;4.70;99.90;;;;;;4942482;28;20058;-63
2023/02/26 12:24:11;;;;;;;1.30;0.57;;;5.00;99.90;;;;;;4887843;28;23552;-63
2023/02/26 12:26:45;;;;;;;3.42;0.52;;;5.40;99.90;;;;;;4864368;28;21523;-64
2023/02/26 12:29:35;;;;;;;1.65;0.43;;;5.40;99.90;;;;;;4864187;28;20042;-64
2023/02/26 12:32:47;;;;;;;0.73;0.30;;;5.40;99.90;;;;;;4863682;28;20030;-63
2023/02/26 12:35:38;;;;;;;2.08;0.50;;;5.20;99.90;;;;;;4847008;28;20039;-64
2023/02/26 12:38:25;;;;;;;1.65;0.40;;;5.00;99.90;;;;;;4844497;28;20106;-63
2023/02/26 12:40:59;;;;;;;4.10;1.00;;;4.90;99.90;;;;;;4850206;28;23571;-63
2023/02/26 12:43:43;;;;;;;1.35;0.60;;;4.90;99.90;;;;;;4850513;28;20023;-63
2023/02/26 12:46:30;;;;;;;2.75;1.00;;;5.00;99.90;;;;;;4834525;28;20107;-63
2023/02/26 12:49:06;;;;;;;1.77;0.35;;;5.50;99.90;;;;;;4851362;28;20879;-63
2023/02/26 12:51:57;;;;;;;0.10;0.10;;;6.00;99.90;;;;;;4848896;28;23419;-64
2023/02/26 12:54:40;;;;;;;0.98;0.40;;;6.10;99.90;;;;;;4871897;28;20419;-64
2023/02/26 12:57:34;;;;;;;0.30;0.30;;;6.10;99.90;;;;;;4902415;28;20025;-63
2023/02/26 12:59:59;;;;;;;1.80;0.32;;;6.00;99.90;;;;;;4903225;28;20045;-64
2023/02/26 13:02:59;;;;;;;3.97;0.50;;;6.00;99.90;;;;;;4900069;28;21310;-63
2023/02/26 13:05:43;;;;;;;2.53;0.10;;;5.90;99.90;;;;;;4914453;28;20351;-70
2023/02/26 13:08:39;;;;;;;0.15;0.15;;;6.00;99.90;;;;;;4944897;28;20028;-64
2023/02/26 13:11:32;;;;;;;0.43;0.43;;;6.20;99.90;;;;;;4914569;28;20044;-64
2023/02/26 13:14:23;;;;;;;5.43;0.88;;;6.20;99.90;;;;;;4942398;28;20522;-64
2023/02/26 13:16:52;;;;;;;3.60;1.85;;;6.40;99.90;;;;;;4944695;28;20101;-64
2023/02/26 13:19:38;;;;;;;0.30;0.30;;;6.40;99.90;;;;;;4942508;28;20033;-63
2023/02/26 13:22:11;;;;;;;0.35;0.35;;;6.40;99.90;;;;;;4943640;28;20030;-64
2023/02/26 13:24:45;;;;;;;5.22;0.85;;;6.20;99.90;;;;;;4935777;28;20028;-63